Terminal Aerodrome Forecast
Issued by NWS

Home | Current Version | Previous Version | Text Only | Print | Product List | Glossary On
Versions: 1 2 3 4 5 6 7 8 9 10 11 12 13 14 15 16 17 18
000
FTAK31 PAJN 131727
TAFASI
TAF
PASI 131727Z 1318/1418 14009KT P6SM -SHRA OVC045
     FM132100 12011KT 6SM -RA BR SCT025 OVC035
     FM140200 12012G22KT 5SM -RA BKN025 OVC050
     FM140900 13008KT 4SM -RA BR BKN015 OVC025
     FM141400 13011KT 6SM -RA BR SCT015 OVC025=

USA.gov is the U.S. government's official web portal to all federal, state and local government web resources and services.